createdAt,value
2019-02-27T00:00:04.682Z,4.57
2019-02-27T00:00:59.070Z,4.03
2019-02-27T00:01:37.061Z,4.13
2019-02-27T00:02:12.461Z,4.27
2019-02-27T00:02:47.862Z,4.00
2019-02-27T00:03:23.240Z,3.63
2019-02-27T00:04:02.093Z,3.90
2019-02-27T00:04:35.978Z,4.00
2019-02-27T00:05:11.355Z,4.77
2019-02-27T00:05:46.765Z,4.47
2019-02-27T00:06:22.477Z,4.00
2019-02-27T00:06:58.062Z,4.43
2019-02-27T00:07:33.732Z,5.00
2019-02-27T00:08:10.148Z,4.83
2019-02-27T00:08:47.301Z,4.40
2019-02-27T00:09:22.966Z,4.07
2019-02-27T00:09:58.334Z,4.17
2019-02-27T00:10:33.746Z,4.00
2019-02-27T00:11:09.924Z,4.07
2019-02-27T00:11:47.074Z,4.00
2019-02-27T00:12:22.441Z,4.30
2019-02-27T00:12:57.853Z,4.50
2019-02-27T00:13:33.232Z,4.30
2019-02-27T00:14:08.679Z,4.10
2019-02-27T00:14:44.077Z,4.10
2019-02-27T00:15:19.812Z,3.93
2019-02-27T00:15:55.220Z,4.23
2019-02-27T00:16:30.596Z,4.00
2019-02-27T00:17:08.246Z,4.40
2019-02-27T00:17:43.411Z,4.63
2019-02-27T00:18:18.819Z,4.17
2019-02-27T00:18:58.592Z,4.60
2019-02-27T00:19:31.937Z,4.27
2019-02-27T00:20:08.641Z,3.43
2019-02-27T00:20:44.004Z,3.70
2019-02-27T00:21:19.453Z,4.67
2019-02-27T00:21:54.834Z,3.70
2019-02-27T00:22:30.207Z,4.20
2019-02-27T00:23:05.868Z,4.43
2019-02-27T00:23:41.346Z,4.57
2019-02-27T00:24:16.829Z,4.27
2019-02-27T00:24:52.229Z,4.20
2019-02-27T00:25:27.961Z,4.00
2019-02-27T00:26:03.903Z,4.30
2019-02-27T00:26:39.537Z,4.43
2019-02-27T00:27:16.406Z,3.90
2019-02-27T00:27:52.049Z,4.40
2019-02-27T00:28:27.767Z,4.63
2019-02-27T00:29:03.405Z,4.47
2019-02-27T00:29:39.051Z,4.07
2019-02-27T00:30:14.754Z,4.00
2019-02-27T00:30:50.135Z,4.00
2019-02-27T00:31:25.647Z,3.77
2019-02-27T00:32:01.115Z,4.33
2019-02-27T00:32:36.542Z,3.87
2019-02-27T00:33:12.022Z,4.57
2019-02-27T00:33:47.688Z,4.67
2019-02-27T00:34:23.647Z,4.20
2019-02-27T00:34:59.434Z,4.40
2019-02-27T00:35:38.846Z,4.17
2019-02-27T00:36:12.950Z,4.33
2019-02-27T00:36:48.684Z,3.90
2019-02-27T00:37:24.118Z,4.73
2019-02-27T00:37:59.524Z,4.43
2019-02-27T00:38:35.552Z,4.77
2019-02-27T00:39:12.751Z,4.60
2019-02-27T00:39:48.131Z,4.37
2019-02-27T00:40:23.804Z,4.07
2019-02-27T00:40:59.476Z,4.30
2019-02-27T00:41:34.875Z,4.40
2019-02-27T00:42:10.838Z,3.93
2019-02-27T00:42:46.258Z,4.30
2019-02-27T00:43:21.642Z,4.23
2019-02-27T00:44:01.042Z,4.30
2019-02-27T00:44:34.900Z,4.23
2019-02-27T00:45:10.886Z,4.27
2019-02-27T00:45:46.535Z,3.73
2019-02-27T00:46:22.273Z,4.17
2019-02-27T00:46:57.672Z,4.43
2019-02-27T00:47:33.063Z,4.10
2019-02-27T00:48:08.781Z,4.37
2019-02-27T00:48:44.220Z,4.80
2019-02-27T00:49:19.992Z,4.40
2019-02-27T00:49:55.621Z,4.23
2019-02-27T00:50:31.042Z,4.47
2019-02-27T00:51:06.480Z,4.60
2019-02-27T00:51:44.715Z,4.47
2019-02-27T00:52:19.627Z,3.97
2019-02-27T00:52:55.341Z,3.80
2019-02-27T00:53:30.725Z,4.60
2019-02-27T00:54:06.394Z,4.93
2019-02-27T00:54:42.105Z,4.53
2019-02-27T00:55:17.515Z,4.73
2019-02-27T00:55:53.229Z,4.50
2019-02-27T00:56:29.187Z,4.43
2019-02-27T00:57:04.672Z,3.90
2019-02-27T00:57:40.367Z,4.70
2019-02-27T00:58:15.918Z,4.73
2019-02-27T00:58:51.559Z,4.83
2019-02-27T00:59:26.990Z,4.10
2019-02-27T01:00:06.269Z,4.20
2019-02-27T01:00:40.135Z,4.50
2019-02-27T01:01:16.104Z,4.77
2019-02-27T01:01:51.608Z,4.30
2019-02-27T01:02:26.998Z,4.27
2019-02-27T01:03:02.757Z,4.37
2019-02-27T01:03:38.453Z,4.67
2019-02-27T01:04:13.884Z,4.53
2019-02-27T01:04:49.862Z,4.90
2019-02-27T01:05:25.667Z,5.37
2019-02-27T01:06:01.107Z,4.57
2019-02-27T01:06:36.553Z,4.23
2019-02-27T01:07:12.200Z,4.60
2019-02-27T01:07:47.943Z,4.53
2019-02-27T01:08:25.084Z,4.43
2019-02-27T01:09:00.511Z,4.63
2019-02-27T01:09:37.192Z,4.53
2019-02-27T01:10:13.429Z,4.70
2019-02-27T01:10:49.086Z,5.43
2019-02-27T01:11:24.530Z,5.17
2019-02-27T01:12:00.033Z,5.40
2019-02-27T01:12:35.976Z,5.07
2019-02-27T01:13:11.836Z,4.80
2019-02-27T01:13:47.245Z,5.40
2019-02-27T01:14:22.648Z,5.13
2019-02-27T01:14:58.044Z,5.33
2019-02-27T01:15:33.438Z,5.23
2019-02-27T01:16:08.853Z,5.00
2019-02-27T01:16:44.935Z,5.03
2019-02-27T01:17:23.463Z,5.57
2019-02-27T01:17:58.165Z,4.87
2019-02-27T01:18:33.875Z,5.20
2019-02-27T01:19:09.318Z,5.90
2019-02-27T01:19:44.890Z,5.43
2019-02-27T01:20:20.289Z,5.23
2019-02-27T01:20:55.772Z,4.97
2019-02-27T01:21:31.158Z,5.07
2019-02-27T01:22:06.666Z,5.07
2019-02-27T01:22:42.086Z,5.00
2019-02-27T01:23:17.527Z,5.33
2019-02-27T01:23:53.249Z,4.80
2019-02-27T01:24:28.909Z,5.27
2019-02-27T01:25:05.058Z,5.70
2019-02-27T01:25:40.768Z,5.53
2019-02-27T01:26:16.154Z,5.50
2019-02-27T01:26:51.975Z,5.00
2019-02-27T01:27:27.397Z,4.40
2019-02-27T01:28:02.785Z,5.17
2019-02-27T01:28:38.205Z,4.90
2019-02-27T01:29:15.713Z,5.33
2019-02-27T01:29:51.796Z,4.70
2019-02-27T01:30:27.274Z,4.80
2019-02-27T01:31:02.691Z,5.40
2019-02-27T01:31:38.084Z,4.83
2019-02-27T01:32:13.512Z,4.73
2019-02-27T01:32:49.195Z,5.17
2019-02-27T01:33:24.620Z,4.83
2019-02-27T01:34:00.098Z,5.00
2019-02-27T01:34:35.742Z,5.00
2019-02-27T01:35:12.196Z,5.07
2019-02-27T01:35:51.323Z,5.57
2019-02-27T01:36:25.748Z,4.70
2019-02-27T01:37:01.307Z,4.63
2019-02-27T01:37:36.688Z,5.33
2019-02-27T01:38:12.173Z,5.10
2019-02-27T01:38:47.627Z,5.33
2019-02-27T01:39:23.061Z,5.17
2019-02-27T01:39:58.491Z,5.23
2019-02-27T01:40:33.892Z,5.53
2019-02-27T01:41:09.546Z,5.37
2019-02-27T01:41:44.955Z,5.20
2019-02-27T01:42:20.437Z,4.90
2019-02-27T01:42:56.189Z,5.00
2019-02-27T01:43:31.592Z,4.53
2019-02-27T01:44:07.003Z,5.33
2019-02-27T01:44:46.572Z,5.70
2019-02-27T01:45:21.795Z,5.40
2019-02-27T01:45:57.435Z,5.50
2019-02-27T01:46:32.841Z,5.60
2019-02-27T01:47:08.373Z,5.40
2019-02-27T01:47:44.035Z,5.43
2019-02-27T01:48:19.469Z,6.10
2019-02-27T01:48:55.205Z,6.80
2019-02-27T01:49:30.626Z,5.37
2019-02-27T01:50:25.030Z,6.13
2019-02-27T01:51:00.412Z,5.57
2019-02-27T01:51:36.059Z,6.57
2019-02-27T01:52:11.763Z,5.70
2019-02-27T01:52:47.514Z,5.90
2019-02-27T01:53:22.973Z,6.30
2019-02-27T01:53:58.660Z,5.90
2019-02-27T01:54:34.582Z,6.20
2019-02-27T01:55:09.977Z,5.80
2019-02-27T01:55:45.366Z,5.80
2019-02-27T01:56:20.808Z,5.93
2019-02-27T01:56:56.306Z,5.70
2019-02-27T01:57:34.134Z,6.40
2019-02-27T01:58:10.148Z,5.67
2019-02-27T01:58:45.563Z,6.30
2019-02-27T01:59:21.902Z,5.87
2019-02-27T01:59:57.614Z,5.60
2019-02-27T02:00:33.158Z,6.07
2019-02-27T02:01:09.126Z,5.87
2019-02-27T02:01:44.815Z,6.40
2019-02-27T02:02:20.520Z,5.50
2019-02-27T02:02:56.250Z,5.77
2019-02-27T02:03:32.597Z,5.60
2019-02-27T02:04:08.033Z,5.73
2019-02-27T02:04:43.768Z,6.10
2019-02-27T02:05:19.910Z,5.70
2019-02-27T02:05:59.043Z,6.13
2019-02-27T02:06:33.053Z,5.87
2019-02-27T02:07:08.443Z,5.67
2019-02-27T02:07:46.756Z,5.87
2019-02-27T02:08:22.144Z,5.77
2019-02-27T02:09:31.928Z,5.90
2019-02-27T02:10:08.320Z,5.30
2019-02-27T02:10:44.011Z,5.80
2019-02-27T02:11:19.743Z,5.33
2019-02-27T02:11:55.414Z,5.60
2019-02-27T02:12:32.942Z,5.70
2019-02-27T02:13:17.611Z,5.77
2019-02-27T02:14:03.753Z,5.03
2019-02-27T02:15:12.308Z,5.23
2019-02-27T02:16:42.273Z,5.40
2019-02-27T02:17:53.796Z,5.17
2019-02-27T02:19:06.420Z,5.27
2019-02-27T02:20:20.033Z,5.70
2019-02-27T02:21:45.161Z,5.30
2019-02-27T02:23:05.061Z,4.97
2019-02-27T02:24:29.308Z,5.17
2019-02-27T02:25:52.376Z,4.70
2019-02-27T02:27:13.885Z,5.33
2019-02-27T02:28:32.604Z,5.50
2019-02-27T02:29:33.444Z,5.00
2019-02-27T02:30:55.811Z,5.40
2019-02-27T02:31:54.308Z,5.57
2019-02-27T02:32:58.930Z,5.80
2019-02-27T02:34:06.381Z,5.87
2019-02-27T02:34:51.894Z,5.77
2019-02-27T02:35:51.791Z,5.80
2019-02-27T02:36:40.984Z,5.33
2019-02-27T02:37:38.231Z,5.83
2019-02-27T02:38:21.827Z,5.70
2019-02-27T02:39:06.598Z,6.70
2019-02-27T02:40:12.889Z,5.90
2019-02-27T02:41:31.814Z,5.23
2019-02-27T02:42:24.317Z,6.17
2019-02-27T02:43:41.550Z,5.87
2019-02-27T02:44:57.675Z,5.70
2019-02-27T02:45:40.200Z,5.77
2019-02-27T02:46:50.273Z,6.20
2019-02-27T02:47:49.013Z,6.30
2019-02-27T02:48:56.481Z,6.37
2019-02-27T02:50:19.088Z,5.43
2019-02-27T02:51:44.633Z,5.40
2019-02-27T02:52:41.715Z,5.63
2019-02-27T02:54:00.815Z,5.70
2019-02-27T02:55:21.078Z,5.97
2019-02-27T02:56:12.507Z,5.93
2019-02-27T02:57:40.600Z,5.40
2019-02-27T02:58:48.443Z,5.60
2019-02-27T03:00:09.181Z,5.57
2019-02-27T03:01:13.922Z,5.67
2019-02-27T03:01:52.846Z,5.90
2019-02-27T03:03:01.933Z,6.33
2019-02-27T03:03:53.144Z,5.70
2019-02-27T03:05:08.475Z,5.73
2019-02-27T03:06:16.522Z,5.40
2019-02-27T03:07:47.824Z,6.30
2019-02-27T03:09:09.204Z,6.47
2019-02-27T03:10:42.533Z,5.60
2019-02-27T03:11:54.753Z,6.30
2019-02-27T03:12:47.539Z,5.63
2019-02-27T03:14:07.017Z,5.37
2019-02-27T03:15:13.128Z,5.80
2019-02-27T03:15:53.544Z,5.40
2019-02-27T03:16:52.318Z,6.27
2019-02-27T03:17:59.752Z,5.70
2019-02-27T03:19:05.031Z,5.87
2019-02-27T03:20:17.616Z,5.77
2019-02-27T03:21:28.582Z,5.70
2019-02-27T03:22:28.326Z,5.70
2019-02-27T03:23:54.449Z,5.40
2019-02-27T03:25:03.671Z,5.77
2019-02-27T03:26:05.127Z,6.00
2019-02-27T03:26:54.769Z,5.60
2019-02-27T03:27:55.209Z,6.07
2019-02-27T03:29:07.106Z,5.87
2019-02-27T03:30:03.791Z,6.30
2019-02-27T03:31:16.374Z,6.17
2019-02-27T03:32:00.096Z,5.97
2019-02-27T03:32:43.813Z,5.60
2019-02-27T03:34:05.631Z,5.93
2019-02-27T03:35:29.220Z,5.47
2019-02-27T03:36:51.407Z,5.93
2019-02-27T03:37:50.863Z,5.60
2019-02-27T03:39:03.869Z,6.97
2019-02-27T03:40:19.425Z,5.87
2019-02-27T03:41:06.322Z,6.20
2019-02-27T03:42:14.188Z,6.47
2019-02-27T03:43:01.672Z,5.93
2019-02-27T03:44:01.395Z,6.00
2019-02-27T03:45:30.701Z,6.00
2019-02-27T03:46:30.912Z,6.17
2019-02-27T03:47:37.357Z,6.47
2019-02-27T03:49:03.876Z,6.17
2019-02-27T03:50:03.517Z,6.43
2019-02-27T03:51:09.080Z,5.37
2019-02-27T03:52:04.428Z,6.40
2019-02-27T03:53:23.866Z,6.87
2019-02-27T03:54:29.926Z,5.80
2019-02-27T03:55:34.860Z,6.33
2019-02-27T03:57:05.220Z,6.87
2019-02-27T03:58:03.176Z,6.67
2019-02-27T03:59:08.160Z,5.93
2019-02-27T04:00:19.400Z,6.03
2019-02-27T04:01:30.439Z,7.00
2019-02-27T04:02:42.867Z,6.57
2019-02-27T04:03:55.240Z,5.97
2019-02-27T04:05:05.441Z,6.50
2019-02-27T04:06:03.063Z,6.90
2019-02-27T04:07:19.317Z,6.10
2019-02-27T04:08:13.110Z,6.47
2019-02-27T04:09:01.593Z,6.60
2019-02-27T04:09:36.989Z,6.83
2019-02-27T04:10:12.736Z,6.23
2019-02-27T04:10:48.193Z,6.97
2019-02-27T04:11:23.757Z,6.67
2019-02-27T04:11:59.192Z,7.03
2019-02-27T04:12:34.849Z,6.43
2019-02-27T04:13:10.231Z,6.93
2019-02-27T04:13:46.008Z,6.83
2019-02-27T04:14:31.510Z,6.70
2019-02-27T04:15:07.694Z,6.47
2019-02-27T04:15:43.397Z,6.80
2019-02-27T04:16:18.904Z,6.40
2019-02-27T04:16:54.328Z,6.30
2019-02-27T04:17:28.969Z,6.83
2019-02-27T04:18:02.678Z,6.30
2019-02-27T04:18:36.425Z,7.00
2019-02-27T04:19:11.819Z,7.10
2019-02-27T04:19:47.595Z,6.77
2019-02-27T04:20:23.025Z,7.13
2019-02-27T04:20:58.799Z,6.73
2019-02-27T04:21:34.301Z,7.13
2019-02-27T04:22:10.003Z,7.17
2019-02-27T04:22:46.005Z,7.10
2019-02-27T04:23:21.828Z,6.73
2019-02-27T04:23:57.617Z,7.00
2019-02-27T04:24:32.978Z,7.27
2019-02-27T04:25:08.909Z,6.83
2019-02-27T04:25:44.331Z,7.53
2019-02-27T04:26:20.050Z,6.90
2019-02-27T04:26:55.703Z,7.23
2019-02-27T04:27:31.085Z,6.93
2019-02-27T04:28:06.875Z,7.07
2019-02-27T04:28:42.886Z,6.60
2019-02-27T04:29:18.551Z,8.03
2019-02-27T04:29:54.220Z,8.23
2019-02-27T04:30:29.631Z,7.43
2019-02-27T04:31:05.074Z,7.47
2019-02-27T04:31:40.920Z,6.80
2019-02-27T04:32:16.332Z,7.43
2019-02-27T04:32:52.047Z,7.50
2019-02-27T04:33:27.452Z,6.97
2019-02-27T04:34:02.861Z,6.40
2019-02-27T04:34:38.303Z,7.17
2019-02-27T04:35:13.999Z,7.67
2019-02-27T04:35:49.543Z,7.23
2019-02-27T04:36:24.898Z,7.63
2019-02-27T04:37:00.292Z,7.73
2019-02-27T04:37:36.087Z,8.00
2019-02-27T04:38:11.544Z,7.40
2019-02-27T04:38:47.941Z,7.37
2019-02-27T04:39:23.366Z,7.03
2019-02-27T04:39:58.801Z,7.73
2019-02-27T04:40:34.566Z,7.37
2019-02-27T04:41:10.356Z,7.07
2019-02-27T04:41:46.156Z,7.97
2019-02-27T04:42:22.936Z,7.93
2019-02-27T04:42:59.298Z,7.20
2019-02-27T04:43:35.514Z,7.67
2019-02-27T04:44:12.587Z,8.00
2019-02-27T04:44:47.987Z,7.67
2019-02-27T04:45:23.668Z,7.67
2019-02-27T04:45:59.076Z,7.90
2019-02-27T04:46:34.468Z,8.47
2019-02-27T04:47:10.637Z,7.93
2019-02-27T04:47:46.012Z,7.70
2019-02-27T04:48:21.677Z,7.70
2019-02-27T04:48:57.495Z,6.87
2019-02-27T04:49:34.786Z,7.33
2019-02-27T04:50:11.300Z,7.77
2019-02-27T04:50:47.254Z,7.87
2019-02-27T04:51:22.664Z,6.50
2019-02-27T04:51:58.085Z,7.33
2019-02-27T04:52:33.788Z,7.43
2019-02-27T04:53:09.490Z,6.97
2019-02-27T04:53:45.190Z,7.63
2019-02-27T04:54:20.863Z,7.00
2019-02-27T04:54:56.243Z,7.70
2019-02-27T04:55:31.952Z,7.10
2019-02-27T04:56:07.719Z,7.50
2019-02-27T04:56:43.651Z,7.17
2019-02-27T04:57:19.156Z,7.57
2019-02-27T04:57:54.660Z,7.83
2019-02-27T04:58:31.385Z,7.33
2019-02-27T04:59:06.926Z,7.40
2019-02-27T04:59:42.661Z,8.10
2019-02-27T05:00:18.050Z,7.80
2019-02-27T05:00:53.443Z,7.13
2019-02-27T05:01:28.854Z,8.13
2019-02-27T05:02:04.332Z,7.60
2019-02-27T05:02:39.765Z,7.67
2019-02-27T05:03:15.402Z,7.50
2019-02-27T05:03:50.895Z,7.57
2019-02-27T05:04:26.298Z,7.30
2019-02-27T05:05:02.042Z,7.37
2019-02-27T05:05:39.120Z,7.80
2019-02-27T05:06:15.267Z,7.70
2019-02-27T05:06:50.798Z,7.23
2019-02-27T05:07:26.773Z,7.67
2019-02-27T05:08:02.698Z,7.57
2019-02-27T05:08:39.244Z,7.27
2019-02-27T05:09:14.647Z,7.27
2019-02-27T05:09:50.042Z,7.27
2019-02-27T05:10:25.700Z,7.10
2019-02-27T05:11:01.177Z,6.83
2019-02-27T05:11:36.667Z,7.00
2019-02-27T05:12:12.093Z,7.43
2019-02-27T05:12:48.165Z,7.60
2019-02-27T05:13:24.391Z,7.67
2019-02-27T05:14:00.121Z,7.10
2019-02-27T05:14:35.859Z,7.70
2019-02-27T05:15:11.286Z,7.97
2019-02-27T05:15:47.130Z,8.10
2019-02-27T05:16:22.534Z,7.53
2019-02-27T05:16:59.659Z,7.20
2019-02-27T05:17:35.218Z,7.00
2019-02-27T05:18:10.622Z,7.90
2019-02-27T05:18:46.288Z,7.87
2019-02-27T05:19:21.947Z,7.50
2019-02-27T05:19:57.887Z,7.97
2019-02-27T05:20:33.370Z,6.90
2019-02-27T05:21:09.111Z,7.53
2019-02-27T05:21:44.532Z,7.00
2019-02-27T05:22:20.275Z,7.07
2019-02-27T05:23:00.079Z,7.73
2019-02-27T05:23:34.180Z,7.77
2019-02-27T05:24:12.161Z,7.70
2019-02-27T05:24:47.708Z,7.40
2019-02-27T05:25:23.103Z,6.53
2019-02-27T05:25:58.590Z,7.17
2019-02-27T05:26:34.019Z,7.13
2019-02-27T05:27:09.431Z,7.20
2019-02-27T05:27:45.400Z,7.87
2019-02-27T05:28:20.785Z,7.87
2019-02-27T05:28:56.193Z,7.03
2019-02-27T05:29:31.671Z,7.57
2019-02-27T05:30:07.326Z,8.33
2019-02-27T05:30:44.721Z,7.20
2019-02-27T05:31:19.814Z,7.00
2019-02-27T05:31:55.480Z,7.93
2019-02-27T05:32:30.954Z,6.77
2019-02-27T05:33:06.431Z,7.37
2019-02-27T05:33:41.853Z,7.40
2019-02-27T05:34:17.325Z,6.47
2019-02-27T05:34:52.768Z,7.17
2019-02-27T05:35:28.173Z,7.07
2019-02-27T05:36:03.985Z,7.13
2019-02-27T05:36:39.462Z,7.23
2019-02-27T05:37:15.102Z,7.73
2019-02-27T05:37:50.542Z,7.27
2019-02-27T05:38:26.574Z,6.90
2019-02-27T05:39:02.298Z,7.17
2019-02-27T05:39:37.951Z,7.57
2019-02-27T05:40:13.361Z,7.87
2019-02-27T05:40:49.496Z,7.67
2019-02-27T05:41:24.968Z,7.40
2019-02-27T05:42:00.943Z,7.90
2019-02-27T05:42:38.561Z,7.80
2019-02-27T05:43:14.054Z,8.77
2019-02-27T05:43:49.580Z,10.03
2019-02-27T05:44:25.042Z,9.90
2019-02-27T05:45:00.477Z,10.50
2019-02-27T05:45:36.117Z,11.37
2019-02-27T05:46:11.519Z,12.17
2019-02-27T05:46:47.212Z,11.73
2019-02-27T05:47:23.005Z,12.90
2019-02-27T05:47:58.566Z,13.10
2019-02-27T05:48:34.260Z,12.63
2019-02-27T05:49:09.923Z,13.07
2019-02-27T05:49:45.355Z,13.40
2019-02-27T05:50:21.043Z,14.07
2019-02-27T05:50:56.803Z,14.20
2019-02-27T05:51:32.836Z,14.17
2019-02-27T05:52:08.504Z,14.73
2019-02-27T05:52:48.375Z,14.43
2019-02-27T05:53:22.282Z,15.87
2019-02-27T05:53:59.117Z,15.47
2019-02-27T05:54:34.822Z,15.80
2019-02-27T05:55:10.225Z,17.13
2019-02-27T05:55:45.903Z,16.50
2019-02-27T05:56:21.330Z,16.97
2019-02-27T05:56:56.810Z,17.03
2019-02-27T05:57:32.940Z,16.57
2019-02-27T05:58:08.424Z,16.73
2019-02-27T05:58:44.178Z,15.77
2019-02-27T05:59:19.848Z,16.40
2019-02-27T05:59:55.583Z,15.70
2019-02-27T06:00:31.154Z,16.63
2019-02-27T06:01:06.588Z,15.80
2019-02-27T06:01:42.304Z,15.93
2019-02-27T06:02:17.693Z,15.47
2019-02-27T06:02:53.643Z,15.57
2019-02-27T06:03:29.059Z,15.13
2019-02-27T06:04:04.749Z,16.40
2019-02-27T06:04:40.411Z,14.27
2019-02-27T06:05:15.957Z,12.63
2019-02-27T06:05:51.431Z,12.90
2019-02-27T06:06:27.197Z,13.27
2019-02-27T06:07:02.661Z,12.10
2019-02-27T06:07:38.164Z,10.80
2019-02-27T06:08:13.911Z,11.53
2019-02-27T06:08:49.431Z,10.80
2019-02-27T06:09:24.856Z,11.17
2019-02-27T06:09:59.154Z,11.17
2019-02-27T06:10:34.431Z,11.00
2019-02-27T06:11:09.849Z,11.17
2019-02-27T06:11:45.347Z,10.13
2019-02-27T06:12:21.094Z,10.63
2019-02-27T06:12:56.705Z,10.63
2019-02-27T06:13:32.197Z,10.73
2019-02-27T06:14:08.059Z,10.03
2019-02-27T06:14:43.462Z,9.90
2019-02-27T06:15:18.851Z,10.50
2019-02-27T06:15:54.636Z,10.43
2019-02-27T06:16:30.044Z,9.90
2019-02-27T06:17:05.740Z,10.37
2019-02-27T06:17:43.639Z,9.87
2019-02-27T06:18:22.444Z,10.10
2019-02-27T06:18:56.856Z,11.63
2019-02-27T06:19:33.627Z,10.47
2019-02-27T06:20:09.631Z,9.77
2019-02-27T06:20:45.186Z,10.10
2019-02-27T06:21:20.602Z,10.07
2019-02-27T06:21:56.911Z,9.17
2019-02-27T06:22:32.353Z,9.20
2019-02-27T06:23:07.853Z,8.47
2019-02-27T06:23:43.580Z,9.33
2019-02-27T06:24:19.211Z,9.13
2019-02-27T06:24:54.883Z,9.20
2019-02-27T06:25:30.272Z,7.93
2019-02-27T06:26:05.695Z,8.87
2019-02-27T06:26:41.381Z,8.30
2019-02-27T06:27:17.097Z,8.27
2019-02-27T06:27:52.546Z,8.63
2019-02-27T06:28:27.975Z,8.80
2019-02-27T06:29:03.399Z,8.57
2019-02-27T06:29:38.880Z,8.37
2019-02-27T06:30:16.200Z,8.80
2019-02-27T06:30:52.251Z,9.43
2019-02-27T06:31:27.644Z,9.17
2019-02-27T06:32:03.404Z,8.80
2019-02-27T06:32:39.332Z,8.67
2019-02-27T06:33:15.041Z,8.30
2019-02-27T06:33:50.979Z,9.23
2019-02-27T06:34:26.502Z,9.17
2019-02-27T06:35:01.909Z,8.17
2019-02-27T06:35:37.344Z,9.27
2019-02-27T06:36:12.839Z,9.13
2019-02-27T06:36:48.273Z,8.77
2019-02-27T06:37:24.096Z,8.47
2019-02-27T06:37:59.498Z,8.30
2019-02-27T06:38:34.912Z,8.50
2019-02-27T06:39:12.142Z,8.63
2019-02-27T06:39:49.743Z,8.30
2019-02-27T06:40:25.827Z,8.93
2019-02-27T06:41:01.245Z,8.33
2019-02-27T06:41:37.204Z,8.23
2019-02-27T06:42:12.769Z,7.57
2019-02-27T06:42:53.417Z,7.97
2019-02-27T06:43:27.941Z,8.47
2019-02-27T06:44:03.351Z,8.67
2019-02-27T06:44:39.870Z,8.40
2019-02-27T06:45:16.301Z,8.57
2019-02-27T06:45:54.207Z,8.57
2019-02-27T06:46:30.565Z,8.67
2019-02-27T06:47:07.190Z,8.23
2019-02-27T06:47:43.914Z,8.73
2019-02-27T06:48:19.352Z,8.90
2019-02-27T06:48:56.440Z,8.47
2019-02-27T06:49:32.688Z,8.97
2019-02-27T06:50:11.962Z,7.97
2019-02-27T06:50:47.404Z,7.90
2019-02-27T06:51:22.811Z,8.10
2019-02-27T06:51:58.214Z,8.67
2019-02-27T06:52:33.657Z,9.03
2019-02-27T06:53:09.145Z,8.47
2019-02-27T06:53:44.837Z,8.50
2019-02-27T06:54:20.255Z,8.63
2019-02-27T06:54:56.251Z,8.53
2019-02-27T06:55:33.755Z,9.23
2019-02-27T06:56:08.849Z,8.50
2019-02-27T06:56:44.233Z,9.00
2019-02-27T06:57:19.619Z,8.60
2019-02-27T06:57:55.294Z,8.13
2019-02-27T06:58:31.136Z,8.10
2019-02-27T06:59:06.899Z,8.87
2019-02-27T06:59:42.932Z,8.73
2019-02-27T07:00:19.346Z,8.83
2019-02-27T07:00:54.852Z,9.30
2019-02-27T07:01:30.388Z,8.60
2019-02-27T07:02:05.807Z,8.30
2019-02-27T07:02:41.618Z,8.43
2019-02-27T07:03:17.011Z,8.23
2019-02-27T07:03:52.545Z,8.97
2019-02-27T07:04:27.939Z,8.30
2019-02-27T07:05:03.421Z,8.30
2019-02-27T07:05:39.364Z,8.63
2019-02-27T07:06:14.782Z,8.47
2019-02-27T07:06:50.212Z,8.13
2019-02-27T07:07:25.747Z,7.90
2019-02-27T07:08:02.181Z,8.87
2019-02-27T07:08:38.772Z,8.40
2019-02-27T07:09:14.312Z,8.40
2019-02-27T07:09:50.283Z,8.50
2019-02-27T07:10:25.763Z,8.73
2019-02-27T07:11:10.328Z,8.37
2019-02-27T07:11:38.692Z,8.53
2019-02-27T07:12:14.727Z,8.83
2019-02-27T07:12:54.367Z,8.77
2019-02-27T07:13:29.894Z,8.17
2019-02-27T07:14:04.710Z,9.07
2019-02-27T07:14:40.143Z,8.70
2019-02-27T07:15:17.189Z,8.93
2019-02-27T07:15:52.936Z,8.30
2019-02-27T07:16:28.425Z,8.70
2019-02-27T07:17:04.005Z,9.57
2019-02-27T07:17:39.692Z,9.13
2019-02-27T07:18:15.089Z,9.40
2019-02-27T07:18:50.748Z,10.20
2019-02-27T07:19:26.149Z,10.97
2019-02-27T07:20:01.623Z,10.47
2019-02-27T07:20:37.134Z,10.90
2019-02-27T07:21:12.794Z,11.40
2019-02-27T07:21:48.206Z,11.80
2019-02-27T07:22:23.700Z,11.40
2019-02-27T07:22:59.451Z,11.00
2019-02-27T07:23:35.310Z,11.20
2019-02-27T07:24:10.802Z,10.63
2019-02-27T07:24:46.802Z,11.70
2019-02-27T07:25:22.562Z,11.10
2019-02-27T07:25:58.033Z,11.00
2019-02-27T07:26:33.501Z,10.70
2019-02-27T07:27:09.214Z,11.30
2019-02-27T07:27:44.872Z,11.60
2019-02-27T07:28:20.328Z,11.30
2019-02-27T07:28:56.296Z,10.93
2019-02-27T07:29:32.059Z,11.40
2019-02-27T07:30:10.000Z,11.33
2019-02-27T07:30:45.781Z,12.03
2019-02-27T07:31:23.327Z,10.80
2019-02-27T07:31:58.473Z,11.00
2019-02-27T07:32:34.214Z,10.70
2019-02-27T07:33:09.625Z,11.07
2019-02-27T07:33:47.163Z,9.60
2019-02-27T07:34:22.880Z,10.17
2019-02-27T07:34:58.537Z,10.30
2019-02-27T07:35:33.946Z,10.77
2019-02-27T07:36:09.398Z,9.97
2019-02-27T07:36:45.113Z,10.43
2019-02-27T07:37:20.646Z,10.73
2019-02-27T07:37:56.327Z,10.20
2019-02-27T07:38:31.831Z,10.13
2019-02-27T07:39:07.402Z,9.43
2019-02-27T07:39:42.827Z,10.60
2019-02-27T07:40:18.518Z,10.63
2019-02-27T07:40:53.913Z,10.80
2019-02-27T07:41:29.555Z,10.73
2019-02-27T07:42:05.381Z,9.97
2019-02-27T07:42:40.851Z,9.90
2019-02-27T07:43:16.334Z,10.60
2019-02-27T07:43:51.774Z,10.33
2019-02-27T07:44:27.204Z,10.30
2019-02-27T07:45:02.628Z,10.33
2019-02-27T07:45:38.303Z,10.40
2019-02-27T07:46:14.204Z,10.20
2019-02-27T07:46:50.811Z,9.90
2019-02-27T07:47:26.533Z,10.07
2019-02-27T07:48:02.051Z,10.53
2019-02-27T07:48:37.655Z,10.87
2019-02-27T07:49:13.161Z,9.27
2019-02-27T07:49:48.710Z,9.90
2019-02-27T07:50:24.143Z,10.60
2019-02-27T07:50:59.852Z,10.70
2019-02-27T07:51:35.815Z,9.30
2019-02-27T07:52:11.340Z,9.17
2019-02-27T07:52:47.208Z,9.60
2019-02-27T07:53:22.611Z,10.20
2019-02-27T07:53:58.269Z,9.73
2019-02-27T07:54:33.681Z,9.87
2019-02-27T07:55:21.090Z,9.70
2019-02-27T07:55:47.394Z,9.70
2019-02-27T07:56:22.940Z,9.03
2019-02-27T07:56:58.598Z,8.43
2019-02-27T07:57:34.526Z,8.93
2019-02-27T07:58:10.258Z,8.87
2019-02-27T07:58:45.999Z,8.77
2019-02-27T07:59:21.480Z,9.50
2019-02-27T07:59:57.158Z,9.50
2019-02-27T08:00:32.889Z,8.37
2019-02-27T08:01:08.563Z,8.97
2019-02-27T08:01:44.256Z,9.30
2019-02-27T08:02:19.674Z,9.57
2019-02-27T08:02:55.157Z,9.80
2019-02-27T08:03:30.933Z,9.63
2019-02-27T08:04:06.327Z,9.20
2019-02-27T08:04:41.830Z,9.73
2019-02-27T08:05:17.796Z,9.37
2019-02-27T08:05:53.198Z,8.63
2019-02-27T08:06:28.842Z,9.70
2019-02-27T08:07:04.482Z,9.60
2019-02-27T08:07:40.229Z,9.20
2019-02-27T08:08:16.099Z,9.00
2019-02-27T08:08:51.521Z,9.93
2019-02-27T08:09:29.961Z,9.70
2019-02-27T08:10:04.955Z,10.20
2019-02-27T08:10:40.518Z,9.67
2019-02-27T08:11:16.282Z,9.87
2019-02-27T08:11:51.774Z,11.57
2019-02-27T08:12:27.281Z,9.47
2019-02-27T08:13:03.006Z,11.03
2019-02-27T08:13:38.526Z,10.70
2019-02-27T08:14:14.284Z,10.23
2019-02-27T08:14:50.000Z,9.83
2019-02-27T08:15:25.768Z,9.77
2019-02-27T08:16:01.182Z,10.50
2019-02-27T08:16:36.998Z,10.70
2019-02-27T08:17:17.688Z,10.37
2019-02-27T08:17:49.987Z,11.33
2019-02-27T08:18:30.053Z,10.93
2019-02-27T08:19:02.574Z,11.03
2019-02-27T08:19:38.377Z,10.73
2019-02-27T08:20:14.493Z,10.80
2019-02-27T08:20:52.136Z,10.50
2019-02-27T08:21:27.032Z,12.00
2019-02-27T08:22:02.762Z,11.57
2019-02-27T08:22:39.278Z,11.40
2019-02-27T08:23:15.673Z,11.23
2019-02-27T08:23:51.149Z,10.17
2019-02-27T08:24:26.810Z,10.23
2019-02-27T08:25:02.512Z,10.63
2019-02-27T08:25:38.141Z,10.80
2019-02-27T08:26:13.923Z,11.47
2019-02-27T08:26:49.386Z,11.77
2019-02-27T08:27:25.049Z,11.37
2019-02-27T08:28:00.726Z,11.73
2019-02-27T08:28:36.389Z,11.57
2019-02-27T08:29:11.863Z,10.67
2019-02-27T08:29:47.423Z,10.40
2019-02-27T08:30:23.185Z,10.40
2019-02-27T08:30:58.599Z,11.23
2019-02-27T08:31:34.271Z,10.93
2019-02-27T08:32:09.683Z,10.80
2019-02-27T08:32:45.483Z,11.03
2019-02-27T08:33:21.227Z,10.93
2019-02-27T08:33:56.639Z,10.83
2019-02-27T08:34:32.310Z,10.03
2019-02-27T08:35:07.735Z,11.43
2019-02-27T08:35:43.499Z,11.00
2019-02-27T08:36:18.942Z,10.47
2019-02-27T08:36:54.345Z,10.73
2019-02-27T08:37:29.738Z,10.47
2019-02-27T08:38:05.750Z,11.23
2019-02-27T08:38:41.263Z,11.50
2019-02-27T08:39:17.147Z,10.80
2019-02-27T08:39:52.598Z,10.40
2019-02-27T08:40:28.145Z,10.60
2019-02-27T08:41:03.537Z,10.87
2019-02-27T08:41:38.952Z,10.93
2019-02-27T08:42:15.769Z,11.53
2019-02-27T08:42:51.409Z,10.57
2019-02-27T08:43:26.821Z,11.73
2019-02-27T08:44:02.463Z,10.93
2019-02-27T08:44:38.121Z,11.57
2019-02-27T08:45:19.943Z,10.97
2019-02-27T08:45:51.558Z,10.50
2019-02-27T08:46:27.243Z,11.43
2019-02-27T08:47:04.162Z,11.07
2019-02-27T08:47:40.817Z,11.30
2019-02-27T08:48:18.080Z,11.47